createdAt,value
2022-11-04T00:02:03.345Z,7.90
2022-11-04T00:04:30.323Z,7.38
2022-11-04T00:06:57.682Z,7.53
2022-11-04T00:09:27.219Z,10.00
2022-11-04T00:12:13.056Z,7.45
2022-11-04T00:14:39.682Z,7.67
2022-11-04T00:17:19.198Z,7.47
2022-11-04T00:20:05.724Z,9.45
2022-11-04T00:22:51.234Z,10.52
2022-11-04T00:25:36.820Z,5.85
2022-11-04T00:28:34.928Z,6.90
2022-11-04T00:31:21.878Z,5.35
2022-11-04T00:33:49.860Z,6.32
2022-11-04T00:36:16.803Z,5.30
2022-11-04T00:38:43.418Z,5.97
2022-11-04T00:41:29.918Z,6.47
2022-11-04T00:43:59.127Z,7.10
2022-11-04T00:46:27.331Z,7.10
2022-11-04T00:48:54.303Z,5.75
2022-11-04T00:51:21.681Z,6.18
2022-11-04T00:53:48.954Z,7.23
2022-11-04T00:56:15.538Z,5.18
2022-11-04T00:58:42.159Z,8.50
2022-11-04T01:01:10.762Z,9.85
2022-11-04T01:03:37.856Z,10.20
2022-11-04T01:06:05.193Z,7.43
2022-11-04T01:08:32.102Z,8.10
2022-11-04T01:11:02.505Z,4.80
2022-11-04T01:13:29.157Z,8.73
2022-11-04T01:15:59.405Z,8.57
2022-11-04T01:18:26.591Z,11.60
2022-11-04T01:20:53.705Z,10.18
2022-11-04T01:23:20.339Z,15.38
2022-11-04T01:25:47.002Z,5.85
2022-11-04T01:28:13.568Z,10.25
2022-11-04T01:30:40.250Z,5.70
2022-11-04T01:33:06.844Z,9.45
2022-11-04T01:35:33.402Z,8.10
2022-11-04T01:37:59.968Z,8.30
2022-11-04T01:40:27.083Z,6.18
2022-11-04T01:42:53.739Z,7.10
2022-11-04T01:45:21.914Z,6.05
2022-11-04T01:48:08.061Z,5.03
2022-11-04T01:50:36.045Z,6.95
2022-11-04T01:53:14.087Z,4.05
2022-11-04T01:55:47.666Z,7.13
2022-11-04T01:58:17.326Z,8.80
2022-11-04T02:00:44.763Z,4.15
2022-11-04T02:03:29.906Z,7.45
2022-11-04T02:05:57.331Z,5.07
2022-11-04T02:08:25.022Z,3.90
2022-11-04T02:11:02.931Z,3.80
2022-11-04T02:13:32.321Z,2.72
2022-11-04T02:16:13.768Z,3.42
2022-11-04T02:18:57.595Z,4.40
2022-11-04T02:21:27.261Z,4.27
2022-11-04T02:24:21.579Z,5.47
2022-11-04T02:27:15.357Z,3.00
2022-11-04T02:29:41.858Z,3.10
2022-11-04T02:32:26.259Z,4.18
2022-11-04T02:35:04.953Z,3.93
2022-11-04T02:40:31.781Z,3.45
2022-11-04T02:43:03.237Z,2.45
2022-11-04T02:45:40.786Z,4.28
2022-11-04T02:48:39.129Z,2.30
2022-11-04T02:51:27.122Z,2.58
2022-11-04T02:54:04.383Z,3.92
2022-11-04T02:56:34.350Z,4.97
2022-11-04T02:59:09.746Z,3.38
2022-11-04T03:01:41.243Z,3.47
2022-11-04T03:04:20.252Z,3.63
2022-11-04T03:06:50.035Z,3.47
2022-11-04T03:09:18.858Z,2.95
2022-11-04T03:11:49.834Z,2.13
2022-11-04T03:14:20.732Z,7.07
2022-11-04T03:16:54.093Z,3.95
2022-11-04T03:19:28.881Z,3.30
2022-11-04T03:22:14.605Z,2.95
2022-11-04T03:24:42.690Z,5.60
2022-11-04T03:27:46.498Z,4.10
2022-11-04T03:30:22.065Z,5.53
2022-11-04T03:33:08.340Z,2.33
2022-11-04T03:35:35.126Z,2.83
2022-11-04T03:38:02.292Z,4.63
2022-11-04T03:40:29.001Z,2.73
2022-11-04T03:43:10.472Z,4.47
2022-11-04T03:45:38.874Z,8.15
2022-11-04T03:48:06.290Z,4.47
2022-11-04T03:50:39.388Z,3.95
2022-11-04T03:53:06.309Z,3.40
2022-11-04T03:56:10.309Z,4.30
2022-11-04T03:59:04.594Z,7.95
2022-11-04T04:01:50.013Z,3.28
2022-11-04T04:04:32.118Z,4.78
2022-11-04T04:07:11.706Z,3.53
2022-11-04T04:09:52.130Z,4.30
2022-11-04T04:12:36.634Z,4.82
2022-11-04T04:15:21.822Z,7.45
2022-11-04T04:17:58.507Z,7.25
2022-11-04T04:20:28.594Z,9.93
2022-11-04T04:23:03.768Z,7.35
2022-11-04T04:25:51.030Z,5.82
2022-11-04T04:28:19.340Z,7.43
2022-11-04T04:30:46.737Z,6.63
2022-11-04T04:33:16.629Z,7.97
2022-11-04T04:36:04.807Z,8.57
2022-11-04T04:38:51.814Z,13.93
2022-11-04T04:41:40.730Z,17.73
2022-11-04T04:44:42.692Z,21.88
2022-11-04T04:47:11.206Z,19.97
2022-11-04T04:49:48.953Z,19.08
2022-11-04T04:52:15.537Z,21.30
2022-11-04T04:54:42.517Z,18.30
2022-11-04T04:57:09.050Z,18.65
2022-11-04T04:59:35.670Z,19.53
2022-11-04T05:02:02.462Z,17.75
2022-11-04T05:04:29.233Z,19.77
2022-11-04T05:06:55.796Z,19.80
2022-11-04T05:09:22.538Z,18.23
2022-11-04T05:11:49.503Z,22.07
2022-11-04T05:14:16.083Z,21.23
2022-11-04T05:16:42.701Z,18.88
2022-11-04T05:19:09.324Z,21.67
2022-11-04T05:21:36.066Z,18.67
2022-11-04T05:24:02.626Z,22.10
2022-11-04T05:26:29.225Z,21.88
2022-11-04T05:28:55.761Z,22.63
2022-11-04T05:31:22.433Z,19.00
2022-11-04T05:33:48.992Z,20.65
2022-11-04T05:36:16.857Z,22.90
2022-11-04T05:38:43.696Z,19.27
2022-11-04T05:41:12.443Z,21.08
2022-11-04T05:43:39.047Z,17.80
2022-11-04T05:46:05.820Z,23.90
2022-11-04T05:48:37.738Z,23.90
2022-11-04T05:51:06.873Z,19.95
2022-11-04T05:53:33.424Z,21.23
2022-11-04T05:55:59.977Z,23.92
2022-11-04T05:58:26.526Z,23.60
2022-11-04T06:00:53.065Z,23.20
2022-11-04T06:03:19.706Z,18.50
2022-11-04T06:05:46.273Z,21.00
2022-11-04T06:08:12.929Z,24.70
2022-11-04T06:10:39.493Z,22.67
2022-11-04T06:13:06.027Z,21.67
2022-11-04T06:15:32.620Z,22.27
2022-11-04T06:17:59.213Z,25.73
2022-11-04T06:20:25.753Z,21.75
2022-11-04T06:22:52.432Z,31.42
2022-11-04T06:25:18.979Z,25.13
2022-11-04T06:27:46.684Z,23.08
2022-11-04T06:30:13.312Z,21.80
2022-11-04T06:32:39.866Z,23.67
2022-11-04T06:35:08.796Z,18.75
2022-11-04T06:37:35.356Z,18.10
2022-11-04T06:40:01.959Z,17.50
2022-11-04T06:42:28.523Z,21.23
2022-11-04T06:44:55.076Z,18.15
2022-11-04T06:47:24.754Z,18.73
2022-11-04T06:49:51.672Z,20.80
2022-11-04T06:52:18.219Z,20.92
2022-11-04T06:54:44.858Z,20.10
2022-11-04T06:57:12.203Z,16.77
2022-11-04T06:59:38.911Z,15.15
2022-11-04T07:02:05.600Z,17.67
2022-11-04T07:04:32.269Z,20.88
2022-11-04T07:06:58.857Z,17.70
2022-11-04T07:09:25.437Z,17.60
2022-11-04T07:11:52.029Z,22.38
2022-11-04T07:14:18.574Z,15.37
2022-11-04T07:16:45.174Z,18.98
2022-11-04T07:19:11.734Z,14.85
2022-11-04T07:21:38.321Z,16.48
2022-11-04T07:24:05.310Z,18.48
2022-11-04T07:26:32.053Z,14.23
2022-11-04T07:29:00.832Z,15.45
2022-11-04T07:31:28.157Z,16.25
2022-11-04T07:33:54.708Z,18.58
2022-11-04T07:36:21.350Z,19.70
2022-11-04T07:38:47.972Z,16.43
2022-11-04T07:41:15.430Z,18.85
2022-11-04T07:43:42.031Z,16.88
2022-11-04T07:46:11.694Z,17.85
2022-11-04T07:48:39.288Z,15.77
2022-11-04T07:51:08.723Z,15.53
2022-11-04T07:53:36.495Z,17.23
2022-11-04T07:56:07.586Z,16.70
2022-11-04T07:58:34.748Z,19.45
2022-11-04T08:01:05.463Z,20.33
2022-11-04T08:03:32.599Z,20.50
2022-11-04T08:06:00.875Z,13.95
2022-11-04T08:08:28.606Z,13.50
2022-11-04T08:11:01.041Z,16.27
2022-11-04T08:13:29.250Z,14.30
2022-11-04T08:15:56.377Z,14.33
2022-11-04T08:18:23.421Z,20.58
2022-11-04T08:20:50.998Z,17.27
2022-11-04T08:23:18.375Z,15.68
2022-11-04T08:25:45.164Z,16.75
2022-11-04T08:28:17.511Z,13.57
2022-11-04T08:31:05.439Z,13.82
2022-11-04T08:33:34.223Z,17.70
2022-11-04T08:36:04.282Z,14.70
2022-11-04T08:38:30.931Z,14.40
2022-11-04T08:41:00.184Z,13.33
2022-11-04T08:43:27.236Z,15.82
2022-11-04T08:45:54.676Z,11.25
2022-11-04T08:48:21.791Z,13.20
2022-11-04T08:50:51.148Z,14.50
2022-11-04T08:53:17.789Z,14.40
2022-11-04T08:55:44.436Z,18.33
2022-11-04T08:58:11.246Z,17.27
2022-11-04T09:00:38.212Z,12.07
2022-11-04T09:03:05.165Z,13.98
2022-11-04T09:05:32.173Z,16.17
2022-11-04T09:07:58.809Z,11.85
2022-11-04T09:10:25.426Z,18.23
2022-11-04T09:12:52.023Z,13.68
2022-11-04T09:15:18.654Z,12.52
2022-11-04T09:17:45.278Z,16.33
2022-11-04T09:20:12.133Z,13.95
2022-11-04T09:22:43.036Z,16.05
2022-11-04T09:25:12.098Z,13.10
2022-11-04T09:27:38.644Z,12.10
2022-11-04T09:30:05.789Z,22.97
2022-11-04T09:32:32.397Z,16.48
2022-11-04T09:34:58.962Z,17.13
2022-11-04T09:37:25.506Z,13.60
2022-11-04T09:39:53.947Z,16.50
2022-11-04T09:42:28.371Z,22.37
2022-11-04T09:45:27.558Z,15.90
2022-11-04T09:48:00.369Z,16.10
2022-11-04T09:50:31.275Z,15.95
2022-11-04T09:53:21.074Z,13.38
2022-11-04T09:56:19.405Z,15.33
2022-11-04T09:58:46.441Z,16.38
2022-11-04T10:01:19.285Z,16.48
2022-11-04T10:04:03.934Z,20.73
2022-11-04T10:06:45.506Z,18.95
2022-11-04T10:09:27.191Z,22.57
2022-11-04T10:11:59.514Z,14.15
2022-11-04T10:14:35.706Z,15.77
2022-11-04T10:17:26.089Z,20.63
2022-11-04T10:20:12.107Z,19.60
2022-11-04T10:22:56.087Z,19.27
2022-11-04T10:25:30.614Z,29.20
2022-11-04T10:27:59.224Z,21.13
2022-11-04T10:30:26.244Z,17.15
2022-11-04T10:33:08.929Z,21.35
2022-11-04T10:35:41.122Z,19.67
2022-11-04T10:38:39.263Z,21.90
2022-11-04T10:41:24.758Z,22.15
2022-11-04T10:43:54.282Z,25.02
2022-11-04T10:46:26.878Z,18.30
2022-11-04T10:49:15.471Z,22.57
2022-11-04T10:51:42.146Z,22.00
2022-11-04T10:54:10.042Z,25.33
2022-11-04T10:56:43.619Z,18.73
2022-11-04T10:59:29.474Z,24.08
2022-11-04T11:02:09.819Z,20.27
2022-11-04T11:04:40.081Z,17.75
2022-11-04T11:07:10.036Z,14.75
2022-11-04T11:09:43.200Z,17.98
2022-11-04T11:12:44.157Z,22.90
2022-11-04T11:14:59.504Z,21.00
2022-11-04T11:17:38.295Z,23.17
2022-11-04T11:20:21.570Z,17.48
2022-11-04T11:22:51.734Z,17.20
2022-11-04T11:25:28.478Z,19.38
2022-11-04T11:28:04.401Z,15.60
2022-11-04T11:30:34.450Z,18.63
2022-11-04T11:33:14.496Z,17.90
2022-11-04T11:35:46.350Z,17.27
2022-11-04T11:38:21.768Z,17.55
2022-11-04T11:41:18.781Z,14.03
2022-11-04T11:43:44.366Z,15.35
2022-11-04T11:46:12.760Z,14.02
2022-11-04T11:48:42.878Z,16.90
2022-11-04T11:51:27.578Z,13.70
2022-11-04T11:54:17.454Z,15.37
2022-11-04T11:57:13.302Z,11.40
2022-11-04T12:02:39.303Z,9.90
2022-11-04T12:11:33.667Z,9.02
2022-11-04T12:14:06.007Z,11.90
2022-11-04T12:17:00.714Z,8.25
2022-11-04T12:19:48.069Z,7.75
2022-11-04T12:22:21.991Z,9.23
2022-11-04T12:25:17.681Z,10.13
2022-11-04T12:27:44.190Z,8.27
2022-11-04T12:30:17.642Z,12.40
2022-11-04T12:33:21.075Z,9.80
2022-11-04T12:36:03.258Z,8.97
2022-11-04T12:38:51.777Z,9.25
2022-11-04T12:42:19.487Z,11.25
2022-11-04T12:45:10.178Z,9.95
2022-11-04T12:47:47.682Z,9.75
2022-11-04T12:50:38.643Z,9.57
2022-11-04T12:53:23.213Z,8.48
2022-11-04T12:56:07.151Z,12.32
2022-11-04T12:58:48.728Z,9.05
2022-11-04T13:01:25.528Z,9.90
2022-11-04T13:04:10.181Z,11.03
2022-11-04T13:06:48.835Z,9.98
2022-11-04T13:09:30.250Z,8.57
2022-11-04T13:12:03.733Z,7.50
2022-11-04T13:14:44.513Z,11.25
2022-11-04T13:17:15.463Z,10.60
2022-11-04T13:19:54.929Z,12.32
2022-11-04T13:22:32.595Z,11.57
2022-11-04T13:25:15.615Z,6.53
2022-11-04T13:27:47.246Z,11.77
2022-11-04T13:30:35.688Z,12.20
2022-11-04T13:33:15.207Z,7.38
2022-11-04T13:35:58.335Z,6.00
2022-11-04T13:38:37.105Z,3.70
2022-11-04T13:41:49.055Z,6.38
2022-11-04T13:44:26.861Z,5.57
2022-11-04T13:46:57.237Z,3.50
2022-11-04T13:49:33.505Z,4.40
2022-11-04T13:52:12.245Z,4.38
2022-11-04T13:54:41.856Z,2.80
2022-11-04T13:57:20.534Z,3.30
2022-11-04T14:00:22.709Z,5.05
2022-11-04T14:03:00.264Z,3.70
2022-11-04T14:05:31.018Z,3.50
2022-11-04T14:08:03.434Z,3.90
2022-11-04T14:10:49.908Z,6.17
2022-11-04T14:13:33.266Z,4.40
2022-11-04T14:16:09.433Z,2.95
2022-11-04T14:18:41.589Z,4.28
2022-11-04T14:21:22.907Z,2.72
2022-11-04T14:23:54.809Z,2.57
2022-11-04T14:26:26.288Z,1.98
2022-11-04T14:29:26.009Z,4.32
2022-11-04T14:31:58.280Z,3.92
2022-11-04T14:34:34.428Z,5.13
2022-11-04T14:37:04.334Z,4.17
2022-11-04T14:39:40.298Z,3.08
2022-11-04T14:42:09.534Z,5.38
2022-11-04T14:44:42.465Z,4.70
2022-11-04T14:47:27.659Z,4.35
2022-11-04T14:50:08.417Z,5.23
2022-11-04T14:52:44.072Z,9.00
2022-11-04T14:55:33.504Z,3.95
2022-11-04T14:58:29.868Z,4.38
2022-11-04T15:01:00.609Z,7.70
2022-11-04T15:06:40.570Z,3.67
2022-11-04T15:09:22.439Z,5.75
2022-11-04T15:12:07.851Z,4.18
2022-11-04T15:14:37.610Z,4.00
2022-11-04T15:17:04.440Z,7.40
2022-11-04T15:19:33.550Z,3.63
2022-11-04T15:22:03.180Z,2.80
2022-11-04T15:24:31.009Z,2.97
2022-11-04T15:27:05.874Z,4.85
2022-11-04T15:29:32.575Z,4.37
2022-11-04T15:32:04.747Z,6.90
2022-11-04T15:34:33.357Z,1.92
2022-11-04T15:37:04.320Z,8.88
2022-11-04T15:39:44.044Z,10.50
2022-11-04T15:42:38.704Z,4.40
2022-11-04T15:45:42.834Z,5.78
2022-11-04T15:48:22.093Z,3.88
2022-11-04T15:51:02.121Z,2.55
2022-11-04T15:53:28.780Z,5.20
2022-11-04T15:55:55.845Z,3.30
2022-11-04T15:58:30.945Z,4.18
2022-11-04T16:00:58.090Z,2.97
2022-11-04T16:03:25.464Z,4.68
2022-11-04T16:06:07.607Z,2.45
2022-11-04T16:08:34.766Z,3.00
2022-11-04T16:11:10.625Z,6.68
2022-11-04T16:13:37.452Z,4.07
2022-11-04T16:16:09.249Z,6.32
2022-11-04T16:18:39.061Z,6.50
2022-11-04T16:21:08.073Z,6.93
2022-11-04T16:23:45.146Z,4.65
2022-11-04T16:26:12.737Z,5.22
2022-11-04T16:28:40.607Z,3.78
2022-11-04T16:31:23.349Z,5.47
2022-11-04T16:33:50.932Z,7.40
2022-11-04T16:36:24.549Z,2.88
2022-11-04T16:38:59.911Z,2.92
2022-11-04T16:41:29.353Z,10.38
2022-11-04T16:43:57.579Z,6.22
2022-11-04T16:46:25.678Z,5.03
2022-11-04T16:48:52.527Z,6.32
2022-11-04T16:51:21.635Z,5.50
2022-11-04T16:53:52.815Z,6.03
2022-11-04T16:56:23.012Z,6.78
2022-11-04T16:58:49.881Z,4.87
2022-11-04T17:01:17.391Z,5.85
2022-11-04T17:03:44.076Z,9.60
2022-11-04T17:06:13.132Z,4.75
2022-11-04T17:08:41.486Z,7.15
2022-11-04T17:11:08.967Z,5.93
2022-11-04T17:13:36.686Z,5.85
2022-11-04T17:16:05.020Z,4.63
2022-11-04T17:18:33.293Z,6.82
2022-11-04T17:21:04.772Z,5.85
2022-11-04T17:23:31.622Z,7.43
2022-11-04T17:25:58.217Z,5.25
2022-11-04T17:28:25.053Z,6.25
2022-11-04T17:30:51.728Z,5.93
2022-11-04T17:33:19.838Z,7.90
2022-11-04T17:35:49.385Z,8.33
2022-11-04T17:38:16.910Z,4.07
2022-11-04T17:41:02.975Z,6.07
2022-11-04T17:43:48.318Z,5.53
2022-11-04T17:46:34.121Z,5.15
2022-11-04T17:49:02.713Z,7.50
2022-11-04T17:51:29.823Z,4.95
2022-11-04T17:53:56.411Z,9.07
2022-11-04T17:56:24.135Z,6.38
2022-11-04T17:58:51.499Z,6.72
2022-11-04T18:01:21.165Z,7.57
2022-11-04T18:03:47.974Z,6.82
2022-11-04T18:06:14.562Z,6.75
2022-11-04T18:08:41.155Z,6.30
2022-11-04T18:11:10.664Z,4.85
2022-11-04T18:13:37.461Z,8.63
2022-11-04T18:16:11.366Z,5.97
2022-11-04T18:18:37.971Z,6.95
2022-11-04T18:21:06.589Z,8.60
2022-11-04T18:23:33.344Z,4.45
2022-11-04T18:26:00.141Z,7.13
2022-11-04T18:28:26.719Z,6.80
2022-11-04T18:30:53.263Z,12.25
2022-11-04T18:33:19.798Z,12.70
2022-11-04T18:35:46.357Z,7.40
2022-11-04T18:38:12.906Z,5.43
2022-11-04T18:40:39.481Z,8.02
2022-11-04T18:43:08.913Z,11.05
2022-11-04T18:45:36.337Z,7.68
2022-11-04T18:48:02.978Z,9.40
2022-11-04T18:50:30.141Z,8.73
2022-11-04T18:52:56.727Z,7.53
2022-11-04T18:55:23.947Z,6.65
2022-11-04T18:57:55.227Z,6.85
2022-11-04T19:00:22.449Z,9.90
2022-11-04T19:02:49.020Z,5.27
2022-11-04T19:05:16.265Z,9.13
2022-11-04T19:07:43.598Z,10.45
2022-11-04T19:10:11.154Z,9.80
2022-11-04T19:12:56.597Z,12.50
2022-11-04T19:15:23.690Z,12.70
2022-11-04T19:17:50.420Z,8.55
2022-11-04T19:20:17.271Z,12.02
2022-11-04T19:22:43.991Z,8.50
2022-11-04T19:25:10.997Z,9.02
2022-11-04T19:27:37.672Z,8.63
2022-11-04T19:30:04.569Z,10.90
2022-11-04T19:32:31.127Z,10.55
2022-11-04T19:34:57.681Z,8.30
2022-11-04T19:37:24.289Z,10.07
2022-11-04T19:39:50.844Z,9.27
2022-11-04T19:42:36.402Z,11.80
2022-11-04T19:45:03.503Z,9.63
2022-11-04T19:47:30.065Z,11.30
2022-11-04T19:49:56.659Z,12.60
2022-11-04T19:52:23.219Z,7.30
2022-11-04T19:54:49.775Z,7.10
2022-11-04T19:57:16.386Z,8.27
2022-11-04T19:59:42.936Z,9.52
2022-11-04T20:02:13.926Z,9.15
2022-11-04T20:04:40.733Z,9.53
2022-11-04T20:07:07.379Z,9.82
2022-11-04T20:09:33.930Z,8.90
2022-11-04T20:12:19.040Z,11.93
2022-11-04T20:14:45.584Z,7.65
2022-11-04T20:17:12.190Z,7.83
2022-11-04T20:19:39.990Z,8.95
2022-11-04T20:22:06.530Z,10.70
2022-11-04T20:24:33.064Z,12.00
2022-11-04T20:26:59.620Z,7.95
2022-11-04T20:29:26.186Z,11.10
2022-11-04T20:31:52.742Z,7.53
2022-11-04T20:34:19.287Z,9.45
2022-11-04T20:36:45.845Z,8.30
2022-11-04T20:39:17.701Z,7.93
2022-11-04T20:41:45.354Z,11.07
2022-11-04T20:44:15.791Z,7.75
2022-11-04T20:46:44.040Z,12.32
2022-11-04T20:49:11.454Z,6.28
2022-11-04T20:51:48.789Z,5.65
2022-11-04T20:54:18.988Z,9.07
2022-11-04T20:56:45.662Z,7.53
2022-11-04T20:59:13.964Z,11.55
2022-11-04T21:01:43.296Z,9.50
2022-11-04T21:04:21.338Z,9.88
2022-11-04T21:06:49.426Z,13.43
2022-11-04T21:09:19.186Z,9.13
2022-11-04T21:11:46.248Z,7.53
2022-11-04T21:14:16.038Z,11.82
2022-11-04T21:16:43.624Z,12.00
2022-11-04T21:19:11.788Z,9.17
2022-11-04T21:21:41.118Z,7.03
2022-11-04T21:24:07.885Z,7.57
2022-11-04T21:26:35.715Z,12.63
2022-11-04T21:29:05.877Z,10.60
2022-11-04T21:31:34.611Z,11.80
2022-11-04T21:34:03.401Z,10.48
2022-11-04T21:36:30.526Z,10.88
2022-11-04T21:38:58.934Z,11.73
2022-11-04T21:41:27.784Z,11.60
2022-11-04T21:43:59.678Z,12.50
2022-11-04T21:46:28.121Z,13.60
2022-11-04T21:48:55.465Z,17.00
2022-11-04T21:51:24.329Z,15.63
2022-11-04T21:53:51.231Z,15.02
2022-11-04T21:56:27.162Z,11.17
2022-11-04T21:58:54.918Z,15.95
2022-11-04T22:01:24.294Z,15.35
2022-11-04T22:03:53.942Z,13.18
2022-11-04T22:06:21.293Z,13.32
2022-11-04T22:08:53.612Z,8.87
2022-11-04T22:11:25.704Z,10.23
2022-11-04T22:14:01.535Z,13.25
2022-11-04T22:16:30.726Z,10.27
2022-11-04T22:19:00.213Z,12.65
2022-11-04T22:21:27.991Z,12.73
2022-11-04T22:23:55.357Z,12.60
2022-11-04T22:26:24.309Z,11.52
2022-11-04T22:28:51.738Z,8.35
2022-11-04T22:31:24.324Z,12.32
2022-11-04T22:33:51.995Z,12.53
2022-11-04T22:36:19.190Z,11.02
2022-11-04T22:38:46.230Z,8.68
2022-11-04T22:41:15.633Z,11.05
2022-11-04T22:43:42.614Z,10.55
2022-11-04T22:46:13.108Z,9.60
2022-11-04T22:48:39.730Z,8.10
2022-11-04T22:51:08.976Z,11.90
2022-11-04T22:53:36.330Z,11.48
2022-11-04T22:56:04.010Z,9.60
2022-11-04T22:58:30.937Z,11.63
2022-11-04T23:01:00.800Z,8.40
2022-11-04T23:03:28.287Z,11.52
2022-11-04T23:06:00.386Z,10.50
2022-11-04T23:08:28.872Z,7.75
2022-11-04T23:11:16.498Z,6.57
2022-11-04T23:14:17.143Z,10.40
2022-11-04T23:17:06.829Z,7.13
2022-11-04T23:19:33.372Z,7.60
2022-11-04T23:22:18.442Z,7.15
2022-11-04T23:25:03.858Z,8.60
2022-11-04T23:27:49.180Z,6.90
2022-11-04T23:30:21.767Z,7.15
2022-11-04T23:32:52.367Z,7.18
2022-11-04T23:35:38.209Z,6.55
2022-11-04T23:38:05.040Z,8.87
2022-11-04T23:40:32.387Z,5.30
2022-11-04T23:42:59.025Z,8.68
2022-11-04T23:45:44.222Z,7.05
2022-11-04T23:48:30.063Z,8.48
2022-11-04T23:51:16.619Z,5.13
2022-11-04T23:54:01.926Z,8.25
2022-11-04T23:56:47.803Z,4.43
2022-11-04T23:59:35.856Z,7.00
